Time;durP1;ratioP1;P1;durP2;ratioP2;P2;SDS_P1;SDS_P2;PMS_P1;PMS_P2;Temp;Humidity;BMP_temperature;BMP_pressure;BME280_temperature;BME280_humidity;BME280_pressure;Samples;Min_cycle;Max_cycle;Signal;HPM_P1;HPM_P2
2022/01/14 00:02:18;;;;;;;;;;;;;;;3.88;58.84;102730.47;5013699;28;6823;-72
2022/01/14 00:04:45;;;;;;;;;;;;;;;3.87;58.45;102717.66;5030376;28;7243;-72
2022/01/14 00:07:11;;;;;;;;;;;;;;;3.89;59.34;102706.91;5027649;28;6839;-72
2022/01/14 00:09:39;;;;;;;;;;;;;;;3.93;59.48;102714.91;5031000;28;6919;-72
2022/01/14 00:12:14;;;;;;;;;;;;;;;3.97;59.64;102710.34;5015832;28;7068;-72
2022/01/14 00:14:42;;;;;;;;;;;;;;;4.02;59.79;102709.19;5029200;28;6823;-72
2022/01/14 00:17:14;;;;;;;;;;;;;;;4.09;60.29;102699.75;5014556;28;6995;-72
2022/01/14 00:19:42;;;;;;;;;;;;;;;4.17;59.64;102699.84;5030224;28;7160;-72
2022/01/14 00:22:14;;;;;;;;;;;;;;;4.26;60.67;102696.53;5028396;28;6795;-72
2022/01/14 00:33:05;;;;;;;;;;;;;;;4.80;61.00;102681.19;5034243;28;6998;-72
2022/01/14 00:35:33;;;;;;;;;;;;;;;4.95;61.26;102681.91;5032327;28;6827;-72
2022/01/14 00:37:59;;;;;;;;;;;;;;;5.09;61.14;102681.75;5029164;28;7031;-72
2022/01/14 00:40:25;;;;;;;;;;;;;;;5.22;61.29;102678.00;5029374;28;6882;-72
2022/01/14 00:42:51;;;;;;;;;;;;;;;5.34;60.78;102684.38;5051508;28;9914;-72
2022/01/14 00:45:18;;;;;;;;;;;;;;;5.47;61.04;102680.56;5029291;28;7164;-72
2022/01/14 00:47:45;;;;;;;;;;;;;;;5.55;60.69;102679.72;5064011;28;7145;-72
2022/01/14 00:50:14;;;;;;;;;;;;;;;5.64;60.83;102684.88;5031568;28;7155;-72
2022/01/14 00:52:42;;;;;;;;;;;;;;;5.69;60.61;102669.34;5050434;28;6819;-72
2022/01/14 00:55:13;;;;;;;;;;;;;;;5.74;60.36;102671.47;5032062;28;6815;-72
2022/01/14 01:00:27;;;;;;;;;;;;;;;5.85;60.26;102670.94;5032452;28;6892;-72
2022/01/14 01:02:53;;;;;;;;;;;;;;;5.90;60.09;102672.34;5030340;28;7248;-72
2022/01/14 01:05:19;;;;;;;;;;;;;;;5.94;60.33;102668.44;5028885;28;6800;-72
2022/01/14 01:07:56;;;;;;;;;;;;;;;5.96;60.24;102661.88;5029578;28;6879;-72
2022/01/14 01:10:23;;;;;;;;;;;;;;;5.98;60.05;102668.91;5046410;28;7896;-72
2022/01/14 01:12:56;;;;;;;;;;;;;;;5.98;59.97;102663.81;5030998;28;7209;-72
2022/01/14 01:15:22;;;;;;;;;;;;;;;6.00;60.33;102658.91;5060180;28;7578;-72
2022/01/14 01:17:49;;;;;;;;;;;;;;;6.02;60.11;102654.00;5030511;28;6897;-72
2022/01/14 01:20:18;;;;;;;;;;;;;;;6.04;60.20;102658.53;5028816;28;7003;-72
2022/01/14 01:22:52;;;;;;;;;;;;;;;6.05;59.88;102660.31;5030008;28;7287;-72
2022/01/14 01:25:21;;;;;;;;;;;;;;;6.07;60.21;102663.00;5043338;28;7251;-72
2022/01/14 01:27:49;;;;;;;;;;;;;;;6.10;60.15;102653.16;5031109;28;7424;-72
2022/01/14 01:31:05;;;;;;;;;;;;;;;6.11;60.44;102648.19;5028177;28;6824;-72
2022/01/14 01:33:06;;;;;;;;;;;;;;;6.13;60.30;102648.38;5036129;28;6823;-72
2022/01/14 01:35:34;;;;;;;;;;;;;;;6.15;60.38;102638.34;5048746;28;7066;-72
2022/01/14 01:38:00;;;;;;;;;;;;;;;6.17;60.48;102639.41;5033091;28;6823;-72
2022/01/14 01:40:27;;;;;;;;;;;;;;;6.17;60.58;102644.50;5031234;28;6954;-72
2022/01/14 01:42:57;;;;;;;;;;;;;;;6.19;60.73;102637.91;5035107;28;7341;-72
2022/01/14 01:45:25;;;;;;;;;;;;;;;6.20;60.52;102640.63;5028629;28;7270;-72
2022/01/14 01:47:54;;;;;;;;;;;;;;;6.23;60.41;102637.50;5045679;28;6932;-72
2022/01/14 01:50:24;;;;;;;;;;;;;;;6.23;60.30;102635.81;5029869;28;6816;-72
2022/01/14 01:52:50;;;;;;;;;;;;;;;6.24;60.46;102640.16;5014107;28;6892;-72
2022/01/14 01:55:16;;;;;;;;;;;;;;;6.25;60.59;102629.22;5046895;28;6815;-72
2022/01/14 01:57:43;;;;;;;;;;;;;;;6.26;60.77;102630.16;5028741;28;6811;-72
2022/01/14 02:00:13;;;;;;;;;;;;;;;6.26;60.93;102625.06;5025838;28;6807;-72
2022/01/14 02:02:39;;;;;;;;;;;;;;;6.27;60.68;102631.94;5030378;28;6811;-72
2022/01/14 02:05:06;;;;;;;;;;;;;;;6.29;60.54;102627.00;5029662;28;6800;-72
2022/01/14 02:07:33;;;;;;;;;;;;;;;6.29;60.60;102621.91;5036055;28;7286;-72
2022/01/14 02:10:00;;;;;;;;;;;;;;;6.29;60.65;102624.47;5029374;28;6811;-72
2022/01/14 02:12:34;;;;;;;;;;;;;;;6.29;60.95;102612.63;5044602;28;6887;-72
2022/01/14 02:15:11;;;;;;;;;;;;;;;6.33;60.89;102616.38;5044291;28;6823;-72
2022/01/14 02:18:03;;;;;;;;;;;;;;;6.33;60.88;102617.28;5016013;28;7052;-72
2022/01/14 02:23:16;;;;;;;;;;;;;;;6.34;60.92;102615.63;5048039;28;8621;-72
2022/01/14 02:25:42;;;;;;;;;;;;;;;6.36;60.46;102617.59;5030921;28;6831;-72
2022/01/14 02:28:14;;;;;;;;;;;;;;;6.37;60.54;102614.28;5046952;28;7601;-72
2022/01/14 02:30:42;;;;;;;;;;;;;;;6.38;60.94;102616.09;5014602;28;7044;-72
2022/01/14 02:33:10;;;;;;;;;;;;;;;6.38;60.60;102607.56;5029687;28;6811;-72
2022/01/14 02:35:37;;;;;;;;;;;;;;;6.39;60.83;102604.28;5029261;28;7897;-72
2022/01/14 02:38:03;;;;;;;;;;;;;;;6.39;60.50;102610.25;5028300;28;6792;-72
2022/01/14 02:40:29;;;;;;;;;;;;;;;6.38;60.14;102605.91;5046063;28;7004;-72
2022/01/14 02:42:59;;;;;;;;;;;;;;;6.39;60.05;102604.28;5028282;28;6980;-72
2022/01/14 02:45:34;;;;;;;;;;;;;;;6.39;60.68;102607.69;5031179;28;6811;-72
2022/01/14 02:48:01;;;;;;;;;;;;;;;6.38;60.31;102611.00;5035676;28;6812;-72
2022/01/14 02:50:36;;;;;;;;;;;;;;;6.38;59.81;102595.72;5045631;28;6922;-72
2022/01/14 02:53:12;;;;;;;;;;;;;;;6.37;60.33;102603.19;5030622;28;7038;-72
2022/01/14 02:55:43;;;;;;;;;;;;;;;6.35;60.07;102597.97;5017603;28;6899;-72
2022/01/14 02:58:10;;;;;;;;;;;;;;;6.36;60.38;102609.03;5032387;28;6823;-72
2022/01/14 03:00:37;;;;;;;;;;;;;;;6.36;60.42;102611.59;5030586;28;6840;-72
2022/01/14 03:03:05;;;;;;;;;;;;;;;6.36;60.63;102606.50;5036609;28;6819;-72
2022/01/14 03:05:31;;;;;;;;;;;;;;;6.35;60.35;102603.06;5046687;28;7061;-72
2022/01/14 03:07:59;;;;;;;;;;;;;;;6.36;60.57;102593.75;5035139;28;7222;-72
2022/01/14 03:10:25;;;;;;;;;;;;;;;6.36;60.73;102591.22;5053460;28;6804;-72
2022/01/14 03:12:51;;;;;;;;;;;;;;;6.38;60.29;102595.72;5037093;28;7190;-72
2022/01/14 03:15:17;;;;;;;;;;;;;;;6.38;60.31;102587.19;5034846;28;6933;-72
2022/01/14 03:17:43;;;;;;;;;;;;;;;6.37;60.24;102585.34;5034471;28;6804;-72
2022/01/14 03:20:24;;;;;;;;;;;;;;;6.37;60.63;102583.72;5034644;28;6856;-72
2022/01/14 03:23:03;;;;;;;;;;;;;;;6.37;60.40;102587.91;5034146;28;7294;-72
2022/01/14 03:28:24;;;;;;;;;;;;;;;6.37;60.52;102585.34;5027426;28;6892;-72
2022/01/14 03:30:53;;;;;;;;;;;;;;;6.36;60.57;102581.00;5036275;28;6892;-72
2022/01/14 03:33:22;;;;;;;;;;;;;;;6.36;60.86;102581.94;5019892;28;6796;-72
2022/01/14 03:35:49;;;;;;;;;;;;;;;6.38;61.41;102574.44;5052534;28;7844;-72
2022/01/14 03:38:16;;;;;;;;;;;;;;;6.39;61.37;102568.59;5035479;28;7194;-72
2022/01/14 03:40:43;;;;;;;;;;;;;;;6.39;61.05;102564.41;5036428;28;6808;-72
2022/01/14 03:43:10;;;;;;;;;;;;;;;6.40;60.94;102562.75;5036985;28;7017;-72
2022/01/14 03:45:37;;;;;;;;;;;;;;;6.41;61.18;102559.47;5053370;28;6828;-72
2022/01/14 03:48:03;;;;;;;;;;;;;;;6.43;60.93;102554.53;5036040;28;6933;-72
2022/01/14 03:50:29;;;;;;;;;;;;;;;6.44;61.10;102554.66;5018847;28;7022;-72
2022/01/14 03:52:55;;;;;;;;;;;;;;;6.45;61.31;102558.13;5053171;28;6787;-72
2022/01/14 03:55:21;;;;;;;;;;;;;;;6.45;60.98;102555.56;5036902;28;7149;-72
2022/01/14 03:57:47;;;;;;;;;;;;;;;6.44;60.92;102554.66;5035393;28;6796;-72
2022/01/14 04:00:14;;;;;;;;;;;;;;;6.46;61.28;102558.25;5069989;28;7018;-72
2022/01/14 04:02:39;;;;;;;;;;;;;;;6.47;61.06;102559.16;5034424;28;6815;-72
2022/01/14 04:05:06;;;;;;;;;;;;;;;6.47;61.39;102544.81;5033688;28;7048;-72
2022/01/14 04:07:31;;;;;;;;;;;;;;;6.48;60.98;102545.69;5032938;28;6807;-70
2022/01/14 04:09:57;;;;;;;;;;;;;;;6.48;61.49;102546.59;5047292;28;7061;-70
2022/01/14 04:12:42;;;;;;;;;;;;;;;6.51;61.18;102541.78;5064342;28;6922;-70
2022/01/14 04:17:53;;;;;;;;;;;;;;;6.51;61.41;102541.78;5049166;28;7089;-70
2022/01/14 04:20:19;;;;;;;;;;;;;;;6.52;61.04;102533.41;5031450;28;7319;-70
2022/01/14 04:22:44;;;;;;;;;;;;;;;6.53;61.14;102544.50;5033271;28;6819;-70
2022/01/14 04:25:10;;;;;;;;;;;;;;;6.53;61.34;102532.66;5048612;28;6803;-70
2022/01/14 04:27:36;;;;;;;;;;;;;;;6.53;60.90;102535.19;5026107;28;7120;-70
2022/01/14 04:30:02;;;;;;;;;;;;;;;6.54;60.63;102536.09;5025852;28;7170;-70
2022/01/14 04:32:27;;;;;;;;;;;;;;;6.55;60.90;102532.81;5045260;28;10200;-70
2022/01/14 04:34:53;;;;;;;;;;;;;;;6.52;60.73;102524.88;5031367;28;6829;-69
2022/01/14 04:37:19;;;;;;;;;;;;;;;6.52;61.04;102532.50;5044482;28;7017;-70
2022/01/14 04:39:44;;;;;;;;;;;;;;;6.51;61.11;102531.59;5046912;28;6799;-70
2022/01/14 04:42:10;;;;;;;;;;;;;;;6.49;61.23;102528.00;5028349;28;6997;-70
2022/01/14 04:44:36;;;;;;;;;;;;;;;6.50;60.82;102532.34;5046713;28;6898;-70
2022/01/14 04:47:14;;;;;;;;;;;;;;;6.49;60.74;102529.66;5048918;28;7197;-70
2022/01/14 04:49:40;;;;;;;;;;;;;;;6.47;60.52;102534.59;5044413;28;7058;-70
2022/01/14 04:52:06;;;;;;;;;;;;;;;6.44;60.29;102531.75;5009644;28;7217;-70
2022/01/14 04:54:32;;;;;;;;;;;;;;;6.44;60.60;102528.31;5026728;28;7350;-70
2022/01/14 04:56:58;;;;;;;;;;;;;;;6.41;60.64;102526.34;5011055;28;7288;-70
2022/01/14 04:59:24;;;;;;;;;;;;;;;6.41;60.68;102530.53;5043938;28;7201;-70
2022/01/14 05:01:50;;;;;;;;;;;;;;;6.38;60.41;102526.06;5027460;28;7535;-70
2022/01/14 05:04:16;;;;;;;;;;;;;;;6.37;60.51;102524.22;5040270;28;7232;-70
2022/01/14 05:06:45;;;;;;;;;;;;;;;6.36;60.78;102520.78;5029766;28;6817;-70
2022/01/14 05:09:22;;;;;;;;;;;;;;;6.36;61.07;102509.69;5032525;28;7255;-70
2022/01/14 05:11:54;;;;;;;;;;;;;;;6.37;61.25;102509.84;5030818;28;7903;-70
2022/01/14 05:14:19;;;;;;;;;;;;;;;6.37;60.94;102509.84;5046230;28;7526;-70
2022/01/14 05:16:46;;;;;;;;;;;;;;;6.38;60.80;102505.69;5029644;28;6946;-70
2022/01/14 05:19:11;;;;;;;;;;;;;;;6.36;60.58;102509.69;5028625;28;6814;-70
2022/01/14 05:21:37;;;;;;;;;;;;;;;6.35;61.26;102505.34;5030626;28;7021;-70
2022/01/14 05:24:03;;;;;;;;;;;;;;;6.32;60.83;102497.41;5046855;28;6879;-70
2022/01/14 05:26:29;;;;;;;;;;;;;;;6.33;60.85;102504.31;5029419;28;6799;-70
2022/01/14 05:28:55;;;;;;;;;;;;;;;6.32;60.72;102503.38;5049813;28;6995;-70
2022/01/14 05:31:20;;;;;;;;;;;;;;;6.31;60.99;102500.72;5032192;28;6878;-70
2022/01/14 05:33:47;;;;;;;;;;;;;;;6.30;61.00;102499.81;5051524;28;6952;-70
2022/01/14 05:36:13;;;;;;;;;;;;;;;6.31;61.09;102510.91;5047628;28;7296;-70
2022/01/14 05:38:38;;;;;;;;;;;;;;;6.31;61.40;102510.91;5065840;28;7002;-70
2022/01/14 05:41:04;;;;;;;;;;;;;;;6.30;61.03;102515.09;5034022;28;6966;-70
2022/01/14 05:43:29;;;;;;;;;;;;;;;6.29;60.75;102518.38;5050725;28;6994;-70
2022/01/14 05:45:55;;;;;;;;;;;;;;;6.27;60.69;102529.16;5053102;28;7863;-70
2022/01/14 05:48:21;;;;;;;;;;;;;;;6.26;60.83;102533.38;5049610;28;7186;-70
2022/01/14 05:50:46;;;;;;;;;;;;;;;6.24;60.60;102540.84;5030759;28;7971;-70
2022/01/14 05:53:12;;;;;;;;;;;;;;;6.20;60.38;102536.19;5029514;28;6870;-70
2022/01/14 05:55:38;;;;;;;;;;;;;;;6.12;59.89;102544.72;5031296;28;6799;-70
2022/01/14 05:58:03;;;;;;;;;;;;;;;6.03;60.41;102534.50;5029008;28;6990;-70
2022/01/14 06:00:29;;;;;;;;;;;;;;;5.97;60.51;102544.91;5031469;28;6823;-70
2022/01/14 06:02:55;;;;;;;;;;;;;;;5.94;60.56;102544.63;5032943;28;7186;-70
2022/01/14 06:05:20;;;;;;;;;;;;;;;5.91;60.67;102544.31;5049611;28;7167;-70
2022/01/14 06:07:47;;;;;;;;;;;;;;;5.86;60.59;102542.94;5018230;28;6823;-70
2022/01/14 06:10:13;;;;;;;;;;;;;;;5.83;60.33;102542.63;5033499;28;7296;-70
2022/01/14 06:12:38;;;;;;;;;;;;;;;5.79;60.15;102538.88;5031180;28;6871;-70
2022/01/14 06:15:05;;;;;;;;;;;;;;;5.75;60.01;102535.88;5049373;28;7002;-70
2022/01/14 06:17:31;;;;;;;;;;;;;;;5.68;59.51;102536.88;5046616;28;7172;-70
2022/01/14 06:19:57;;;;;;;;;;;;;;;5.62;60.13;102532.06;5033490;28;6804;-70
2022/01/14 06:22:22;;;;;;;;;;;;;;;5.58;60.20;102529.94;5050990;28;7149;-70
2022/01/14 06:24:49;;;;;;;;;;;;;;;5.53;60.13;102529.47;5033214;28;6871;-70
2022/01/14 06:27:15;;;;;;;;;;;;;;;5.52;59.96;102536.97;5045953;28;6804;-70
2022/01/14 06:29:41;;;;;;;;;;;;;;;5.48;59.96;102532.28;5047624;28;6791;-69
2022/01/14 06:32:06;;;;;;;;;;;;;;;5.47;59.83;102535.56;5025695;28;7194;-70
2022/01/14 06:34:32;;;;;;;;;;;;;;;5.41;59.60;102523.13;5051537;28;6791;-70
2022/01/14 06:36:59;;;;;;;;;;;;;;;5.40;60.46;102522.22;5034675;28;6941;-70
2022/01/14 06:39:25;;;;;;;;;;;;;;;5.38;59.89;102515.19;5051213;28;6913;-70
2022/01/14 06:41:51;;;;;;;;;;;;;;;5.35;59.79;102523.41;5042735;28;7147;-70
2022/01/14 06:44:16;;;;;;;;;;;;;;;5.35;60.57;102519.94;5022078;28;6862;-70
2022/01/14 06:46:42;;;;;;;;;;;;;;;5.34;60.05;102515.59;5052228;28;6803;-70
2022/01/14 06:49:08;;;;;;;;;;;;;;;5.32;60.73;102512.00;5049554;28;6875;-70
2022/01/14 06:51:34;;;;;;;;;;;;;;;5.31;60.91;102512.75;5034816;28;7348;-70
2022/01/14 06:53:59;;;;;;;;;;;;;;;5.30;61.04;102509.28;5054277;28;7216;-70
2022/01/14 06:56:25;;;;;;;;;;;;;;;5.31;61.15;102500.97;5034564;28;6889;-69
2022/01/14 06:58:50;;;;;;;;;;;;;;;5.31;61.08;102497.50;5017728;28;7255;-70
2022/01/14 07:01:16;;;;;;;;;;;;;;;5.31;60.86;102500.97;5033947;28;6815;-70
2022/01/14 07:03:42;;;;;;;;;;;;;;;5.31;60.72;102513.66;5032907;28;6791;-70
2022/01/14 07:06:08;;;;;;;;;;;;;;;5.28;60.82;102510.78;5036029;28;7098;-70
2022/01/14 07:08:34;;;;;;;;;;;;;;;5.24;60.69;102513.78;5038439;28;7195;-70
2022/01/14 07:11:00;;;;;;;;;;;;;;;5.19;59.89;102514.91;5035798;28;6835;-70
2022/01/14 07:13:25;;;;;;;;;;;;;;;5.13;60.22;102516.09;5051889;28;7282;-70
2022/01/14 07:15:51;;;;;;;;;;;;;;;5.08;60.28;102521.44;5036121;28;6792;-70
2022/01/14 07:18:17;;;;;;;;;;;;;;;5.03;59.97;102523.50;5053722;28;6871;-69
2022/01/14 07:20:43;;;;;;;;;;;;;;;5.00;60.07;102523.16;5032910;28;7180;-70
2022/01/14 07:23:08;;;;;;;;;;;;;;;4.97;60.06;102530.47;5033859;28;6886;-70
2022/01/14 07:25:34;;;;;;;;;;;;;;;4.91;60.06;102524.75;5034055;28;7153;-70
2022/01/14 07:28:00;;;;;;;;;;;;;;;4.86;60.40;102535.34;5035159;28;6791;-70
2022/01/14 07:30:26;;;;;;;;;;;;;;;4.81;60.43;102533.94;5034344;28;6783;-70
2022/01/14 07:32:52;;;;;;;;;;;;;;;4.78;60.00;102542.88;5052571;28;7284;-70
2022/01/14 07:35:18;;;;;;;;;;;;;;;4.72;59.91;102540.59;5034460;28;6998;-70
2022/01/14 07:37:43;;;;;;;;;;;;;;;4.69;59.71;102545.34;5016707;28;7216;-70
2022/01/14 07:40:10;;;;;;;;;;;;;;;4.65;59.86;102544.13;5051283;28;7907;-70
2022/01/14 07:42:36;;;;;;;;;;;;;;;4.61;60.06;102547.09;5033493;28;6812;-70
2022/01/14 07:45:04;;;;;;;;;;;;;;;4.57;59.77;102540.78;5047786;28;7211;-70
2022/01/14 07:47:30;;;;;;;;;;;;;;;4.54;59.85;102544.63;5049997;28;6872;-70
2022/01/14 07:49:55;;;;;;;;;;;;;;;4.50;60.16;102535.78;5030228;28;6795;-72
2022/01/14 07:52:21;;;;;;;;;;;;;;;4.46;60.76;102528.56;5016512;28;6922;-70
2022/01/14 07:54:47;;;;;;;;;;;;;;;4.47;60.80;102540.53;5051462;28;6819;-70
2022/01/14 07:57:12;;;;;;;;;;;;;;;4.49;61.30;102536.50;5030540;28;6914;-70
2022/01/14 07:59:39;;;;;;;;;;;;;;;4.52;61.16;102531.75;5032777;28;6812;-70
2022/01/14 08:02:06;;;;;;;;;;;;;;;4.56;61.40;102533.91;5031020;28;7031;-70
2022/01/14 08:04:35;;;;;;;;;;;;;;;4.59;60.69;102528.25;5031678;28;6807;-70
2022/01/14 08:07:11;;;;;;;;;;;;;;;4.62;61.64;102530.19;5046580;28;7779;-70
2022/01/14 08:09:43;;;;;;;;;;;;;;;4.69;61.96;102533.56;5030593;28;7527;-70
2022/01/14 08:12:12;;;;;;;;;;;;;;;4.76;61.64;102524.94;5013305;28;7218;-70
2022/01/14 08:14:38;;;;;;;;;;;;;;;4.85;62.21;102522.47;5029629;28;6799;-70
2022/01/14 08:17:05;;;;;;;;;;;;;;;4.94;61.96;102537.81;5030933;28;7026;-70
2022/01/14 08:19:33;;;;;;;;;;;;;;;5.03;62.41;102533.69;5029482;28;7090;-71
2022/01/14 08:22:04;;;;;;;;;;;;;;;5.11;61.54;102537.91;5051278;28;6921;-72
2022/01/14 08:24:32;;;;;;;;;;;;;;;5.19;61.82;102537.81;5045376;28;6819;-72
2022/01/14 08:26:59;;;;;;;;;;;;;;;5.26;61.49;102540.25;5030818;28;7872;-71
2022/01/14 08:29:28;;;;;;;;;;;;;;;5.32;61.86;102542.53;5043484;28;7059;-72
2022/01/14 08:31:55;;;;;;;;;;;;;;;5.38;62.08;102540.63;5012857;28;6828;-72
2022/01/14 08:34:21;;;;;;;;;;;;;;;5.44;62.10;102532.72;5044794;28;6792;-72
2022/01/14 08:36:48;;;;;;;;;;;;;;;5.51;61.81;102542.81;5047870;28;6848;-72
2022/01/14 08:39:15;;;;;;;;;;;;;;;5.58;61.75;102542.66;5014777;28;7174;-72
2022/01/14 08:41:41;;;;;;;;;;;;;;;5.65;61.95;102545.09;5042014;28;7868;-72
2022/01/14 08:44:07;;;;;;;;;;;;;;;5.74;62.32;102539.16;5026554;28;6880;-72
2022/01/14 08:46:34;;;;;;;;;;;;;;;5.81;62.11;102537.38;5022335;28;7298;-72
2022/01/14 08:49:01;;;;;;;;;;;;;;;5.92;62.24;102545.19;5043269;28;6819;-71
2022/01/14 08:51:28;;;;;;;;;;;;;;;6.00;61.95;102543.47;5028055;28;7218;-72
2022/01/14 08:53:57;;;;;;;;;;;;;;;6.08;62.27;102551.13;5027480;28;6800;-72
2022/01/14 08:56:24;;;;;;;;;;;;;;;6.18;62.42;102540.25;5025565;28;6911;-72
2022/01/14 08:58:50;;;;;;;;;;;;;;;6.28;62.30;102546.22;5043346;28;7312;-72
2022/01/14 09:01:16;;;;;;;;;;;;;;;6.37;62.35;102542.06;5045424;28;7370;-72
2022/01/14 09:03:41;;;;;;;;;;;;;;;6.46;62.61;102547.19;5006018;28;6978;-72
2022/01/14 09:06:07;;;;;;;;;;;;;;;6.53;62.11;102550.47;5046344;28;6799;-72
2022/01/14 09:08:33;;;;;;;;;;;;;;;6.62;62.53;102541.94;5042558;28;7125;-72
2022/01/14 09:10:58;;;;;;;;;;;;;;;6.69;61.92;102539.25;5029224;28;6929;-72
2022/01/14 09:13:24;;;;;;;;;;;;;;;6.76;61.89;102528.00;5044487;28;7820;-72
2022/01/14 09:15:50;;;;;;;;;;;;;;;6.83;62.48;102522.78;5027301;28;6796;-72
2022/01/14 09:18:15;;;;;;;;;;;;;;;6.91;61.72;102510.75;5027865;28;7157;-72
2022/01/14 09:20:41;;;;;;;;;;;;;;;6.99;62.26;102507.31;5011658;28;7223;-72
2022/01/14 09:23:12;;;;;;;;;;;;;;;7.06;61.64;102519.91;5048955;28;8050;-72
2022/01/14 09:25:39;;;;;;;;;;;;;;;7.14;62.03;102507.88;5047501;28;6887;-72
2022/01/14 09:28:04;;;;;;;;;;;;;;;7.21;62.09;102494.97;5028528;28;6906;-72
2022/01/14 09:30:30;;;;;;;;;;;;;;;7.31;61.46;102490.75;5034549;28;7029;-72
2022/01/14 09:32:56;;;;;;;;;;;;;;;7.39;62.09;102489.81;5033714;28;7240;-72
2022/01/14 09:35:22;;;;;;;;;;;;;;;7.48;61.56;102489.78;5032979;28;6942;-72
2022/01/14 09:37:49;;;;;;;;;;;;;;;7.57;61.34;102490.63;5032067;28;6799;-70
2022/01/14 09:40:16;;;;;;;;;;;;;;;7.66;60.82;102479.50;5029643;28;6968;-70
2022/01/14 09:42:50;;;;;;;;;;;;;;;7.74;61.42;102487.09;5024580;28;6824;-70
2022/01/14 09:45:18;;;;;;;;;;;;;;;7.82;61.08;102479.25;5035798;28;6827;-70
2022/01/14 09:47:48;;;;;;;;;;;;;;;7.92;60.26;102482.81;5024562;28;6869;-70
2022/01/14 09:50:14;;;;;;;;;;;;;;;8.02;61.50;102483.66;5030710;28;6834;-70
2022/01/14 09:52:40;;;;;;;;;;;;;;;8.12;60.92;102487.94;5053312;28;6973;-70
2022/01/14 09:55:06;;;;;;;;;;;;;;;8.22;61.44;102489.69;5049966;28;6817;-70
2022/01/14 09:57:32;;;;;;;;;;;;;;;8.32;61.46;102494.88;5019787;28;7318;-70
2022/01/14 09:59:57;;;;;;;;;;;;;;;8.40;60.95;102487.91;5050277;28;6803;-70
2022/01/14 10:02:34;;;;;;;;;;;;;;;8.53;60.42;102489.94;5032075;28;6878;-70
2022/01/14 10:05:01;;;;;;;;;;;;;;;8.61;59.90;102491.53;5018159;28;7316;-70
2022/01/14 10:07:27;;;;;;;;;;;;;;;8.69;60.40;102497.31;5033380;28;7022;-70
2022/01/14 10:09:59;;;;;;;;;;;;;;;8.79;59.83;102504.13;5049973;28;8089;-70
2022/01/14 10:12:26;;;;;;;;;;;;;;;8.88;61.16;102503.31;5049590;28;6819;-70
2022/01/14 10:15:09;;;;;;;;;;;;;;;9.01;60.64;102495.06;5051798;28;7403;-70
2022/01/14 10:17:39;;;;;;;;;;;;;;;9.25;61.30;102508.19;5024318;28;8384;-70
2022/01/14 10:20:08;;;;;;;;;;;;;;;9.65;61.55;102497.94;5035212;28;6811;-70
2022/01/14 10:22:40;;;;;;;;;;;;;;;10.14;60.79;102496.06;5036228;28;7261;-70
2022/01/14 10:25:19;;;;;;;;;;;;;;;10.75;60.23;102503.56;5038270;28;6832;-70
2022/01/14 10:27:54;;;;;;;;;;;;;;;11.41;58.77;102494.19;5031477;28;7266;-70
2022/01/14 10:30:32;;;;;;;;;;;;;;;12.01;57.26;102500.47;5054513;28;6819;-70
2022/01/14 10:33:07;;;;;;;;;;;;;;;12.48;57.10;102494.53;5069064;28;7010;-70
2022/01/14 10:35:42;;;;;;;;;;;;;;;12.90;56.01;102494.09;5037828;28;6824;-70
2022/01/14 10:38:11;;;;;;;;;;;;;;;13.29;55.36;102499.41;5035326;28;6816;-70
2022/01/14 10:40:47;;;;;;;;;;;;;;;13.74;54.49;102489.63;5020263;28;6808;-70
2022/01/14 10:43:16;;;;;;;;;;;;;;;14.26;53.49;102493.94;5037550;28;6895;-70
2022/01/14 10:45:45;;;;;;;;;;;;;;;14.85;52.92;102501.25;5034281;28;6803;-70
2022/01/14 10:48:32;;;;;;;;;;;;;;;15.48;51.43;102505.97;5033403;28;7192;-70
2022/01/14 10:51:00;;;;;;;;;;;;;;;15.87;50.21;102505.72;5018750;28;6903;-70
2022/01/14 10:53:51;;;;;;;;;;;;;;;16.33;49.24;102506.69;5050035;28;7371;-70
2022/01/14 10:56:25;;;;;;;;;;;;;;;16.91;47.93;102497.84;5035634;28;6899;-70
2022/01/14 10:58:56;;;;;;;;;;;;;;;17.32;47.21;102499.25;5018203;28;7283;-70
2022/01/14 11:01:25;;;;;;;;;;;;;;;17.67;46.38;102503.63;5036923;28;7223;-70
2022/01/14 11:04:01;;;;;;;;;;;;;;;17.88;45.51;102503.84;5034922;28;6800;-70
2022/01/14 11:06:34;;;;;;;;;;;;;;;18.01;45.53;102482.00;5034350;28;7212;-70
2022/01/14 11:09:13;;;;;;;;;;;;;;;18.25;44.89;102490.16;5064068;28;6864;-70
2022/01/14 11:11:42;;;;;;;;;;;;;;;18.43;44.37;102490.19;5033692;28;6807;-70
2022/01/14 11:14:08;;;;;;;;;;;;;;;18.35;43.93;102496.72;5033718;28;7072;-70
2022/01/14 11:16:36;;;;;;;;;;;;;;;18.23;43.88;102493.50;5065593;28;7082;-70
2022/01/14 11:19:03;;;;;;;;;;;;;;;18.14;44.03;102487.03;5031754;28;7339;-70
2022/01/14 11:24:27;;;;;;;;;;;;;;;18.50;43.25;102469.72;5049535;28;7029;-70
2022/01/14 11:27:16;;;;;;;;;;;;;;;18.81;42.24;102465.97;5035073;28;6884;-70
2022/01/14 11:29:47;;;;;;;;;;;;;;;19.24;41.66;102457.59;5031125;28;7181;-70
2022/01/14 11:32:14;;;;;;;;;;;;;;;19.61;41.55;102455.72;5015553;28;6804;-70
2022/01/14 11:34:44;;;;;;;;;;;;;;;19.93;40.65;102450.13;5029817;28;7058;-70
2022/01/14 11:37:37;;;;;;;;;;;;;;;20.25;40.62;102437.56;5048360;28;7064;-70
2022/01/14 11:40:08;;;;;;;;;;;;;;;20.49;39.82;102450.69;5024953;28;6951;-70
2022/01/14 11:42:48;;;;;;;;;;;;;;;20.68;39.61;102439.28;5031354;28;6969;-70
2022/01/14 11:45:45;;;;;;;;;;;;;;;20.92;39.28;102438.47;5014818;28;6899;-70
2022/01/14 11:48:40;;;;;;;;;;;;;;;21.21;38.59;102443.00;5029113;28;6788;-70
2022/01/14 11:51:15;;;;;;;;;;;;;;;21.36;38.32;102435.69;5029303;28;6812;-70
2022/01/14 11:53:49;;;;;;;;;;;;;;;21.40;37.87;102433.22;5031405;28;7308;-70
2022/01/14 11:56:30;;;;;;;;;;;;;;;21.40;37.80;102434.09;5045237;28;6989;-70
2022/01/14 11:59:17;;;;;;;;;;;;;;;21.41;37.56;102428.03;5028804;28;7254;-70
2022/01/14 12:01:48;;;;;;;;;;;;;;;21.37;37.34;102426.16;5046316;28;7507;-70
2022/01/14 12:04:15;;;;;;;;;;;;;;;21.36;37.30;102422.66;5060951;28;6938;-70
2022/01/14 12:06:49;;;;;;;;;;;;;;;21.43;37.45;102421.16;5028213;28;6803;-70
2022/01/14 12:09:19;;;;;;;;;;;;;;;21.43;37.20;102420.28;5045097;28;7884;-70
2022/01/14 12:12:05;;;;;;;;;;;;;;;21.34;36.82;102420.81;5011887;28;6815;-70
2022/01/14 12:14:42;;;;;;;;;;;;;;;21.22;36.59;102416.94;5032994;28;7163;-70
2022/01/14 12:17:13;;;;;;;;;;;;;;;21.09;36.75;102410.41;5028481;28;7956;-70
2022/01/14 12:19:39;;;;;;;;;;;;;;;20.68;36.93;102413.22;5044057;28;7096;-70
2022/01/14 12:22:06;;;;;;;;;;;;;;;19.82;37.25;102411.53;5042765;28;7098;-70
2022/01/14 12:24:34;;;;;;;;;;;;;;;18.74;38.21;102424.16;5044157;28;7123;-70
2022/01/14 12:27:21;;;;;;;;;;;;;;;17.67;39.50;102410.25;5029661;28;6811;-70
2022/01/14 12:29:50;;;;;;;;;;;;;;;16.52;40.84;102412.88;5044622;28;7003;-70
2022/01/14 12:32:38;;;;;;;;;;;;;;;15.63;41.54;102423.31;5024864;28;6815;-70
2022/01/14 12:35:06;;;;;;;;;;;;;;;14.76;42.84;102428.38;5030073;28;6808;-70
2022/01/14 12:37:41;;;;;;;;;;;;;;;14.13;43.27;102425.19;5044098;28;6913;-70
2022/01/14 12:40:12;;;;;;;;;;;;;;;13.57;45.14;102430.13;5032577;28;7916;-70
2022/01/14 12:42:40;;;;;;;;;;;;;;;13.15;46.03;102424.66;5028221;28;6834;-70
2022/01/14 12:45:10;;;;;;;;;;;;;;;12.87;46.64;102416.66;5013389;28;6804;-70
2022/01/14 12:47:40;;;;;;;;;;;;;;;12.66;46.79;102408.31;5042283;28;7078;-70
2022/01/14 12:50:11;;;;;;;;;;;;;;;12.52;47.73;102409.91;5027075;28;6891;-70
2022/01/14 12:52:50;;;;;;;;;;;;;;;12.35;47.45;102412.13;5027919;28;7240;-70
2022/01/14 12:55:19;;;;;;;;;;;;;;;12.25;48.53;102414.81;5030710;28;7848;-70
2022/01/14 12:57:45;;;;;;;;;;;;;;;12.16;48.30;102415.94;5028614;28;6900;-70
2022/01/14 13:00:14;;;;;;;;;;;;;;;12.13;49.10;102417.38;5028922;28;6803;-70
2022/01/14 13:02:41;;;;;;;;;;;;;;;12.09;49.13;102416.25;5031535;28;7295;-70
2022/01/14 13:05:15;;;;;;;;;;;;;;;11.96;48.96;102414.41;5046843;28;7242;-70
2022/01/14 13:07:43;;;;;;;;;;;;;;;11.77;49.32;102420.72;5027585;28;8285;-70
2022/01/14 13:10:13;;;;;;;;;;;;;;;11.58;49.91;102426.16;5030419;28;8129;-70
2022/01/14 13:12:41;;;;;;;;;;;;;;;11.40;50.04;102420.53;5050145;28;7018;-70
2022/01/14 13:15:23;;;;;;;;;;;;;;;11.23;50.39;102417.53;5030917;28;7577;-70
2022/01/14 13:18:03;;;;;;;;;;;;;;;11.05;50.68;102413.53;5058705;28;7225;-70
2022/01/14 13:20:32;;;;;;;;;;;;;;;10.94;51.49;102416.16;5044286;28;6819;-70
2022/01/14 13:22:59;;;;;;;;;;;;;;;10.93;51.34;102419.50;5046713;28;6808;-70
2022/01/14 13:25:30;;;;;;;;;;;;;;;10.95;51.94;102424.72;5051769;28;7318;-70
2022/01/14 13:28:00;;;;;;;;;;;;;;;10.94;52.27;102422.94;5033944;28;7924;-70